Aviation Digital Data Service (ADDS)

Output produced by METARs form (1032 UTC 02 September 2015)
found at http://aviationweather.gov/adds/metars/
 
KBPT 020520Z 0206/0306 VRB03KT P6SM VCSH SCT025 BKN150 
     FM021500 13010KT P6SM VCSH SCT035 BKN150 
     FM030100 14005KT P6SM FEW050 BKN200